createdAt,value
2018-03-19T00:00:34.418Z,58.00
2018-03-19T00:01:34.378Z,57.43
2018-03-19T00:02:34.323Z,57.62
2018-03-19T00:03:34.565Z,57.34
2018-03-19T00:04:34.221Z,57.43
2018-03-19T00:05:34.166Z,57.15
2018-03-19T00:06:34.116Z,57.24
2018-03-19T00:07:34.068Z,57.05
2018-03-19T00:08:34.015Z,57.43
2018-03-19T00:09:34.264Z,56.96
2018-03-19T00:10:33.912Z,57.05
2018-03-19T00:11:33.865Z,57.34
2018-03-19T00:12:33.812Z,57.34
2018-03-19T00:13:33.768Z,57.53
2018-03-19T00:14:33.724Z,57.81
2018-03-19T00:15:33.973Z,57.62
2018-03-19T00:16:33.614Z,58.18
2018-03-19T00:17:33.571Z,57.81
2018-03-19T00:18:33.511Z,58.18
2018-03-19T00:19:33.464Z,58.00
2018-03-19T00:20:33.415Z,58.34
2018-03-19T00:21:33.659Z,57.87
2018-03-19T00:22:33.310Z,58.28
2018-03-19T00:23:33.261Z,58.28
2018-03-19T00:24:33.217Z,58.37
2018-03-19T00:25:33.160Z,58.56
2018-03-19T00:26:33.109Z,58.34
2018-03-19T00:27:33.060Z,58.91
2018-03-19T00:28:33.309Z,58.72
2018-03-19T00:29:32.959Z,58.63
2018-03-19T00:30:32.908Z,58.75
2018-03-19T00:31:32.859Z,58.94
2018-03-19T00:32:32.807Z,58.15
2018-03-19T00:33:32.756Z,58.34
2018-03-19T00:34:32.708Z,58.47
2018-03-19T00:35:32.658Z,58.47
2018-03-19T00:36:32.605Z,58.34
2018-03-19T00:37:32.558Z,58.53
2018-03-19T00:38:32.510Z,57.81
2018-03-19T00:39:32.456Z,57.81
2018-03-19T00:40:32.403Z,57.71
2018-03-19T00:41:32.655Z,58.34
2018-03-19T00:42:32.308Z,58.37
2018-03-19T00:43:32.260Z,58.06
2018-03-19T00:44:32.210Z,57.78
2018-03-19T00:45:32.153Z,58.18
2018-03-19T00:46:32.111Z,58.09
2018-03-19T00:47:32.059Z,58.06
2018-03-19T00:48:32.305Z,58.15
2018-03-19T00:49:31.950Z,58.53
2018-03-19T00:50:31.917Z,58.34
2018-03-19T00:51:31.856Z,58.06
2018-03-19T00:52:31.801Z,58.15
2018-03-19T00:53:31.746Z,58.34
2018-03-19T00:54:31.753Z,58.44
2018-03-19T00:55:31.948Z,57.97
2018-03-19T00:56:31.598Z,58.44
2018-03-19T00:57:31.546Z,58.25
2018-03-19T00:58:31.497Z,58.34
2018-03-19T00:59:31.454Z,58.06
2018-03-19T01:00:31.395Z,57.87
2018-03-19T01:01:31.407Z,58.06
2018-03-19T01:02:31.596Z,58.34
2018-03-19T01:03:31.246Z,58.25
2018-03-19T01:04:31.196Z,58.44
2018-03-19T01:05:31.144Z,58.72
2018-03-19T01:06:31.145Z,59.10
2018-03-19T01:07:31.047Z,58.72
2018-03-19T01:08:31.292Z,58.91
2018-03-19T01:09:30.966Z,58.53
2018-03-19T01:10:30.894Z,58.63
2018-03-19T01:11:30.842Z,58.53
2018-03-19T01:12:30.841Z,58.82
2018-03-19T01:13:30.741Z,58.82
2018-03-19T01:14:30.992Z,58.72
2018-03-19T01:15:30.639Z,58.63
2018-03-19T01:16:30.640Z,59.00
2018-03-19T01:17:30.539Z,59.38
2018-03-19T01:18:30.490Z,59.29
2018-03-19T01:19:30.439Z,59.38
2018-03-19T01:20:30.688Z,59.10
2018-03-19T01:21:30.339Z,58.44
2018-03-19T01:22:30.289Z,58.82
2018-03-19T01:23:30.238Z,59.38
2018-03-19T01:24:30.189Z,59.10
2018-03-19T01:25:30.134Z,59.29
2018-03-19T01:26:30.383Z,59.19
2018-03-19T01:27:30.034Z,59.00
2018-03-19T01:28:29.983Z,58.82
2018-03-19T01:29:29.932Z,59.38
2018-03-19T01:30:29.889Z,59.19
2018-03-19T01:31:29.835Z,59.10
2018-03-19T01:32:29.779Z,59.10
2018-03-19T01:33:30.079Z,59.48
2018-03-19T01:34:29.678Z,59.76
2018-03-19T01:35:29.647Z,59.38
2018-03-19T01:36:29.581Z,59.19
2018-03-19T01:37:29.526Z,59.76
2018-03-19T01:38:29.478Z,59.48
2018-03-19T01:39:29.427Z,59.67
2018-03-19T01:40:29.692Z,59.57
2018-03-19T01:41:29.328Z,60.33
2018-03-19T01:42:29.287Z,60.14
2018-03-19T01:43:29.225Z,60.14
2018-03-19T01:44:29.176Z,60.14
2018-03-19T01:45:29.126Z,60.14
2018-03-19T01:46:29.070Z,60.71
2018-03-19T01:47:29.328Z,60.99
2018-03-19T01:48:28.969Z,60.71
2018-03-19T01:49:28.917Z,60.99
2018-03-19T01:50:28.870Z,60.89
2018-03-19T01:51:28.822Z,60.99
2018-03-19T01:52:28.770Z,60.89
2018-03-19T01:53:28.717Z,61.08
2018-03-19T01:54:28.968Z,60.99
2018-03-19T01:55:28.614Z,60.99
2018-03-19T01:56:28.564Z,60.71
2018-03-19T01:57:28.517Z,61.36
2018-03-19T01:58:28.469Z,60.80
2018-03-19T01:59:28.417Z,60.61
2018-03-19T02:00:28.363Z,60.42
2018-03-19T02:01:28.612Z,60.71
2018-03-19T02:02:28.261Z,59.86
2018-03-19T02:03:28.219Z,59.95
2018-03-19T02:04:28.158Z,60.52
2018-03-19T02:05:28.118Z,60.61
2018-03-19T02:06:28.067Z,60.42
2018-03-19T02:07:28.011Z,60.71
2018-03-19T02:08:28.256Z,60.61
2018-03-19T02:09:27.906Z,60.52
2018-03-19T02:10:27.855Z,60.80
2018-03-19T02:11:27.803Z,60.52
2018-03-19T02:12:27.751Z,60.99
2018-03-19T02:13:27.703Z,60.89
2018-03-19T02:14:27.951Z,60.80
2018-03-19T02:15:27.602Z,60.33
2018-03-19T02:16:27.550Z,60.61
2018-03-19T02:17:27.503Z,60.71
2018-03-19T02:18:27.449Z,61.08
2018-03-19T02:19:27.399Z,60.89
2018-03-19T02:20:27.647Z,61.55
2018-03-19T02:21:27.300Z,61.84
2018-03-19T02:22:27.251Z,61.08
2018-03-19T02:23:27.193Z,61.55
2018-03-19T02:24:27.151Z,61.27
2018-03-19T02:25:27.094Z,61.65
2018-03-19T02:26:27.343Z,61.93
2018-03-19T02:27:26.990Z,61.65
2018-03-19T02:28:26.941Z,62.02
2018-03-19T02:29:26.888Z,61.74
2018-03-19T02:30:26.838Z,61.93
2018-03-19T02:31:26.789Z,61.84
2018-03-19T02:32:27.037Z,61.36
2018-03-19T02:33:26.690Z,61.84
2018-03-19T02:34:26.639Z,61.55
2018-03-19T02:35:26.641Z,61.27
2018-03-19T02:36:26.533Z,61.08
2018-03-19T02:37:26.491Z,60.61
2018-03-19T02:38:26.738Z,60.61
2018-03-19T02:39:26.395Z,60.80
2018-03-19T02:40:26.381Z,61.08
2018-03-19T02:41:26.283Z,61.18
2018-03-19T02:42:26.235Z,61.18
2018-03-19T02:43:26.178Z,61.84
2018-03-19T02:44:26.182Z,61.55
2018-03-19T02:45:26.378Z,61.93
2018-03-19T02:46:26.027Z,61.46
2018-03-19T02:47:25.989Z,61.84
2018-03-19T02:48:25.925Z,61.27
2018-03-19T02:49:25.950Z,61.36
2018-03-19T02:50:25.822Z,61.46
2018-03-19T02:51:25.783Z,61.84
2018-03-19T02:52:26.020Z,61.55
2018-03-19T02:53:25.671Z,61.65
2018-03-19T02:54:25.638Z,61.74
2018-03-19T02:55:25.570Z,62.02
2018-03-19T02:56:25.516Z,62.31
2018-03-19T02:57:25.471Z,63.03
2018-03-19T02:58:25.416Z,62.78
2018-03-19T02:59:25.701Z,62.78
2018-03-19T03:00:25.314Z,62.97
2018-03-19T03:01:25.263Z,62.88
2018-03-19T03:02:25.212Z,62.78
2018-03-19T03:03:25.161Z,62.50
2018-03-19T03:04:25.109Z,62.97
2018-03-19T03:05:25.059Z,63.51
2018-03-19T03:06:25.308Z,63.22
2018-03-19T03:07:24.956Z,63.22
2018-03-19T03:08:24.904Z,63.26
2018-03-19T03:09:24.854Z,63.16
2018-03-19T03:10:24.802Z,62.94
2018-03-19T03:11:24.751Z,63.07
2018-03-19T03:12:24.700Z,63.03
2018-03-19T03:13:24.949Z,63.03
2018-03-19T03:14:24.597Z,63.16
2018-03-19T03:15:24.546Z,62.75
2018-03-19T03:16:24.494Z,63.13
2018-03-19T03:17:24.445Z,62.66
2018-03-19T03:18:24.393Z,63.32
2018-03-19T03:19:24.642Z,63.07
2018-03-19T03:20:24.291Z,63.26
2018-03-19T03:21:24.242Z,63.26
2018-03-19T03:22:24.191Z,62.97
2018-03-19T03:23:24.139Z,63.51
2018-03-19T03:24:24.087Z,63.22
2018-03-19T03:25:24.341Z,62.94
2018-03-19T03:26:23.985Z,63.70
2018-03-19T03:27:23.935Z,63.79
2018-03-19T03:28:23.881Z,63.60
2018-03-19T03:29:23.836Z,63.51
2018-03-19T03:30:23.782Z,63.89
2018-03-19T03:31:24.034Z,63.89
2018-03-19T03:32:23.681Z,64.17
2018-03-19T03:33:23.630Z,64.45
2018-03-19T03:34:23.577Z,64.17
2018-03-19T03:35:23.530Z,63.98
2018-03-19T03:36:23.472Z,63.89
2018-03-19T03:37:23.721Z,63.89
2018-03-19T03:38:23.379Z,63.98
2018-03-19T03:39:23.320Z,63.89
2018-03-19T03:40:23.271Z,64.54
2018-03-19T03:41:23.217Z,64.17
2018-03-19T03:42:23.177Z,64.07
2018-03-19T03:43:23.427Z,64.17
2018-03-19T03:44:23.063Z,63.98
2018-03-19T03:45:23.013Z,63.89
2018-03-19T03:46:22.967Z,64.64
2018-03-19T03:47:22.912Z,64.45
2018-03-19T03:48:22.858Z,64.36
2018-03-19T03:49:22.811Z,64.64
2018-03-19T03:50:23.056Z,65.01
2018-03-19T03:51:22.706Z,65.01
2018-03-19T03:52:22.653Z,64.26
2018-03-19T03:53:22.605Z,64.45
2018-03-19T03:54:22.563Z,64.54
2018-03-19T03:55:22.502Z,64.45
2018-03-19T03:56:22.451Z,63.70
2018-03-19T03:57:22.697Z,64.26
2018-03-19T03:58:22.348Z,64.45
2018-03-19T03:59:22.349Z,64.54
2018-03-19T04:00:22.247Z,64.45
2018-03-19T04:01:22.198Z,64.54
2018-03-19T04:02:22.140Z,64.54
2018-03-19T04:03:22.089Z,64.83
2018-03-19T04:04:22.339Z,64.73
2018-03-19T04:05:21.987Z,65.11
2018-03-19T04:06:21.937Z,65.01
2018-03-19T04:07:21.887Z,64.73
2018-03-19T04:08:21.846Z,65.11
2018-03-19T04:09:21.780Z,64.45
2018-03-19T04:10:21.733Z,64.73
2018-03-19T04:11:21.984Z,64.45
2018-03-19T04:12:21.645Z,65.01
2018-03-19T04:13:21.582Z,65.20
2018-03-19T04:14:21.584Z,65.30
2018-03-19T04:15:21.474Z,64.92
2018-03-19T04:16:21.424Z,65.11
2018-03-19T04:17:21.372Z,65.11
2018-03-19T04:18:21.621Z,65.30
2018-03-19T04:19:21.269Z,65.30
2018-03-19T04:20:21.219Z,65.11
2018-03-19T04:21:21.167Z,64.83
2018-03-19T04:22:21.121Z,65.01
2018-03-19T04:23:21.063Z,65.39
2018-03-19T04:24:21.050Z,65.30
2018-03-19T04:25:21.264Z,65.11
2018-03-19T04:26:20.914Z,65.30
2018-03-19T04:27:20.858Z,65.11
2018-03-19T04:28:20.807Z,65.48
2018-03-19T04:29:20.754Z,65.58
2018-03-19T04:30:20.707Z,65.58
2018-03-19T04:31:20.959Z,65.39
2018-03-19T04:32:20.600Z,66.34
2018-03-19T04:33:20.560Z,66.24
2018-03-19T04:34:20.497Z,65.39
2018-03-19T04:35:20.449Z,65.30
2018-03-19T04:36:20.395Z,65.58
2018-03-19T04:37:20.655Z,65.30
2018-03-19T04:38:20.295Z,65.11
2018-03-19T04:39:20.306Z,65.77
2018-03-19T04:40:20.191Z,65.48
2018-03-19T04:41:20.140Z,66.05
2018-03-19T04:42:20.117Z,66.15
2018-03-19T04:43:20.336Z,66.05
2018-03-19T04:44:19.984Z,66.05
2018-03-19T04:45:19.933Z,66.43
2018-03-19T04:46:19.888Z,66.24
2018-03-19T04:47:19.833Z,66.43
2018-03-19T04:48:19.779Z,66.43
2018-03-19T04:49:20.027Z,67.09
2018-03-19T04:50:19.679Z,67.47
2018-03-19T04:51:19.632Z,67.28
2018-03-19T04:52:19.613Z,67.38
2018-03-19T04:53:19.534Z,67.38
2018-03-19T04:54:19.469Z,67.75
2018-03-19T04:55:19.719Z,67.28
2018-03-19T04:56:19.421Z,67.38
2018-03-19T04:57:19.315Z,67.09
2018-03-19T04:58:19.264Z,67.09
2018-03-19T04:59:19.213Z,67.28
2018-03-19T05:00:19.164Z,67.19
2018-03-19T05:01:19.111Z,67.09
2018-03-19T05:02:19.362Z,67.47
2018-03-19T05:03:19.007Z,67.38
2018-03-19T05:04:18.955Z,67.00
2018-03-19T05:05:18.905Z,67.47
2018-03-19T05:06:18.853Z,67.38
2018-03-19T05:07:18.801Z,67.47
2018-03-19T05:08:18.751Z,67.28
2018-03-19T05:09:18.997Z,67.28
2018-03-19T05:10:18.703Z,67.47
2018-03-19T05:11:18.597Z,67.00
2018-03-19T05:12:18.539Z,67.47
2018-03-19T05:13:18.492Z,67.19
2018-03-19T05:14:18.489Z,68.04
2018-03-19T05:15:18.394Z,68.04
2018-03-19T05:16:18.636Z,67.75
2018-03-19T05:17:18.285Z,67.57
2018-03-19T05:18:18.236Z,67.38
2018-03-19T05:19:18.184Z,67.19
2018-03-19T05:20:18.133Z,67.57
2018-03-19T05:21:18.079Z,67.47
2018-03-19T05:22:18.029Z,67.94
2018-03-19T05:23:18.277Z,67.85
2018-03-19T05:24:17.922Z,67.85
2018-03-19T05:25:17.874Z,67.85
2018-03-19T05:26:17.819Z,67.66
2018-03-19T05:27:17.773Z,67.85
2018-03-19T05:28:17.718Z,68.23
2018-03-19T05:29:17.671Z,67.94
2018-03-19T05:30:17.916Z,68.60
2018-03-19T05:31:17.562Z,68.70
2018-03-19T05:32:17.516Z,68.79
2018-03-19T05:33:17.462Z,68.60
2018-03-19T05:34:17.406Z,67.94
2018-03-19T05:35:17.356Z,68.04
2018-03-19T05:36:17.615Z,67.85
2018-03-19T05:37:17.250Z,67.94
2018-03-19T05:38:17.206Z,68.04
2018-03-19T05:39:17.158Z,68.04
2018-03-19T05:40:17.095Z,68.04
2018-03-19T05:41:17.051Z,67.00
2018-03-19T05:42:17.299Z,67.38
2018-03-19T05:43:16.946Z,67.75
2018-03-19T05:44:16.896Z,67.57
2018-03-19T05:45:16.849Z,67.75
2018-03-19T05:46:16.788Z,67.75
2018-03-19T05:47:16.736Z,68.04
2018-03-19T05:48:16.986Z,68.04
2018-03-19T05:49:16.640Z,68.04
2018-03-19T05:50:16.627Z,68.04
2018-03-19T05:51:16.531Z,68.04
2018-03-19T05:52:16.479Z,67.66
2018-03-19T05:53:16.431Z,67.94
2018-03-19T05:54:16.678Z,68.04
2018-03-19T05:55:16.323Z,67.38
2018-03-19T05:56:16.279Z,67.38
2018-03-19T05:57:16.274Z,67.66
2018-03-19T05:58:16.171Z,67.00
2018-03-19T05:59:16.119Z,67.00
2018-03-19T06:00:16.365Z,67.47
2018-03-19T06:01:16.015Z,67.47
2018-03-19T06:02:15.962Z,67.19
2018-03-19T06:03:15.911Z,67.85
2018-03-19T06:04:15.859Z,67.75
2018-03-19T06:05:15.811Z,67.94
2018-03-19T06:06:15.755Z,68.04
2018-03-19T06:07:16.004Z,68.04
2018-03-19T06:08:15.653Z,67.85
2018-03-19T06:09:15.605Z,67.94
2018-03-19T06:10:15.551Z,67.47
2018-03-19T06:11:15.552Z,67.85
2018-03-19T06:12:15.448Z,67.75
2018-03-19T06:13:15.401Z,67.94
2018-03-19T06:14:15.650Z,68.04
2018-03-19T06:15:15.293Z,67.94
2018-03-19T06:16:15.240Z,67.09
2018-03-19T06:17:15.189Z,67.38
2018-03-19T06:18:15.138Z,67.19
2018-03-19T06:19:15.086Z,67.38
2018-03-19T06:20:15.085Z,67.19
2018-03-19T06:21:15.286Z,67.19
2018-03-19T06:22:14.931Z,67.19
2018-03-19T06:23:14.880Z,67.19
2018-03-19T06:24:14.836Z,66.90
2018-03-19T06:25:14.777Z,66.81
2018-03-19T06:26:14.726Z,66.90
2018-03-19T06:27:14.879Z,66.81
2018-03-19T06:28:14.924Z,66.34
2018-03-19T06:29:14.572Z,66.43
2018-03-19T06:30:14.531Z,66.81
2018-03-19T06:31:14.475Z,67.19
2018-03-19T06:32:14.423Z,66.24
2018-03-19T06:33:14.416Z,66.15
2018-03-19T06:34:14.317Z,66.43
2018-03-19T06:35:14.564Z,65.96
2018-03-19T06:36:14.210Z,65.67
2018-03-19T06:37:14.163Z,65.39
2018-03-19T06:38:14.113Z,65.48
2018-03-19T06:39:14.068Z,65.77
2018-03-19T06:40:14.064Z,65.86
2018-03-19T06:41:13.964Z,65.67
2018-03-19T06:42:14.225Z,65.86
2018-03-19T06:43:13.855Z,65.77
2018-03-19T06:44:13.801Z,65.39
2018-03-19T06:45:13.751Z,65.30
2018-03-19T06:46:13.707Z,65.11
2018-03-19T06:47:13.714Z,65.20
2018-03-19T06:48:13.898Z,65.01
2018-03-19T06:49:13.600Z,65.11
2018-03-19T06:50:13.499Z,65.11
2018-03-19T06:51:13.494Z,64.73
2018-03-19T06:52:13.449Z,65.20
2018-03-19T06:53:13.342Z,65.14
2018-03-19T06:54:13.594Z,65.14
2018-03-19T06:55:13.242Z,65.05
2018-03-19T06:56:13.193Z,64.86
2018-03-19T06:57:13.344Z,64.48
2018-03-19T06:58:13.092Z,64.48
2018-03-19T06:59:13.124Z,64.01
2018-03-19T07:00:13.285Z,63.63
2018-03-19T07:01:12.934Z,64.11
2018-03-19T07:02:13.038Z,63.35
2018-03-19T07:03:12.831Z,63.54
2018-03-19T07:04:12.840Z,63.82
2018-03-19T07:05:12.790Z,63.26
2018-03-19T07:06:12.986Z,63.92
2018-03-19T07:07:12.634Z,63.45
2018-03-19T07:08:12.579Z,63.07
2018-03-19T07:09:12.574Z,63.35
2018-03-19T07:10:12.627Z,62.59
2018-03-19T07:11:12.426Z,62.97
2018-03-19T07:12:12.378Z,62.78
2018-03-19T07:13:12.381Z,62.97
2018-03-19T07:14:12.325Z,62.02
2018-03-19T07:15:12.274Z,61.84
2018-03-19T07:16:12.171Z,62.12
2018-03-19T07:17:12.214Z,62.02
2018-03-19T07:18:12.070Z,62.02
2018-03-19T07:19:12.369Z,61.36
2018-03-19T07:20:12.026Z,61.36
2018-03-19T07:21:11.919Z,61.27
2018-03-19T07:22:11.920Z,61.77
2018-03-19T07:23:11.819Z,59.63
2018-03-19T07:24:11.917Z,57.58
2018-03-19T07:25:11.769Z,55.63
2018-03-19T07:26:11.969Z,53.07
2018-03-19T07:27:11.667Z,51.81
2018-03-19T07:28:11.574Z,51.75
2018-03-19T07:29:11.572Z,51.09
2018-03-19T07:30:11.519Z,50.71
2018-03-19T07:31:11.421Z,50.33
2018-03-19T07:32:11.425Z,50.26
2018-03-19T07:33:11.624Z,49.69
2018-03-19T07:34:11.326Z,48.84
2018-03-19T07:35:11.279Z,48.84
2018-03-19T07:36:11.182Z,48.46
2018-03-19T07:37:11.148Z,47.44
2018-03-19T07:38:11.091Z,46.97
2018-03-19T07:39:11.099Z,47.16
2018-03-19T07:40:11.500Z,46.59
2018-03-19T07:41:10.957Z,45.83
2018-03-19T07:42:10.967Z,46.40
2018-03-19T07:43:10.864Z,46.02
2018-03-19T07:44:11.122Z,45.45
2018-03-19T07:45:10.832Z,45.88
2018-03-19T07:46:10.733Z,43.98
2018-03-19T07:47:11.041Z,43.51
2018-03-19T07:48:10.649Z,43.32
2018-03-19T07:49:10.770Z,43.13
2018-03-19T07:50:10.715Z,43.32
2018-03-19T07:51:10.526Z,42.66
2018-03-19T07:52:10.524Z,42.68
2018-03-19T07:53:10.735Z,42.30
2018-03-19T07:54:10.692Z,41.73
2018-03-19T07:55:10.405Z,40.76
2018-03-19T07:56:10.308Z,40.38
2018-03-19T07:57:10.588Z,40.55
2018-03-19T07:58:10.226Z,40.79
2018-03-19T07:59:10.534Z,43.20
2018-03-19T08:00:10.192Z,42.94
2018-03-19T08:01:10.100Z,41.61
2018-03-19T08:02:10.110Z,41.05
2018-03-19T08:03:10.116Z,40.83
2018-03-19T08:04:10.187Z,41.80
2018-03-19T08:05:10.341Z,41.73
2018-03-19T08:06:09.896Z,41.16
2018-03-19T08:07:10.004Z,40.47
2018-03-19T08:08:09.970Z,40.57
2018-03-19T08:09:09.826Z,40.00
2018-03-19T08:10:09.881Z,39.90
2018-03-19T08:11:09.696Z,38.94
2018-03-19T08:12:09.849Z,41.14
2018-03-19T08:13:09.660Z,40.26
2018-03-19T08:14:09.622Z,40.74
2018-03-19T08:15:09.627Z,41.40
2018-03-19T08:16:09.486Z,41.89
2018-03-19T08:17:09.747Z,40.74
2018-03-19T08:18:09.457Z,41.97
2018-03-19T08:19:09.414Z,41.71
2018-03-19T08:20:09.375Z,40.28
2018-03-19T08:21:09.286Z,40.28
2018-03-19T08:22:09.300Z,40.00
2018-03-19T08:23:09.562Z,39.89
2018-03-19T08:24:09.214Z,40.47
2018-03-19T08:25:09.177Z,40.31
2018-03-19T08:26:09.087Z,39.47
2018-03-19T08:27:09.092Z,38.71
2018-03-19T08:28:09.206Z,37.67
2018-03-19T08:29:09.019Z,37.76
2018-03-19T08:30:09.273Z,36.99
2018-03-19T08:31:08.886Z,38.03
2018-03-19T08:32:08.993Z,38.10
2018-03-19T08:33:09.004Z,39.07
2018-03-19T08:34:08.812Z,38.86
2018-03-19T08:35:08.773Z,39.07
2018-03-19T08:36:08.713Z,38.71
2018-03-19T08:37:09.046Z,37.86
2018-03-19T08:38:08.902Z,37.65
2018-03-19T08:39:08.876Z,38.14
2018-03-19T08:40:08.577Z,37.48
2018-03-19T08:41:08.486Z,37.84
2018-03-19T08:42:08.496Z,37.55
2018-03-19T08:43:08.569Z,36.99
2018-03-19T08:44:08.716Z,37.57
2018-03-19T08:45:08.379Z,37.18
2018-03-19T08:46:08.289Z,37.88
2018-03-19T08:47:08.406Z,37.33
2018-03-19T08:48:08.359Z,36.93
2018-03-19T08:49:08.222Z,37.13
2018-03-19T08:50:08.183Z,35.31
2018-03-19T08:51:08.394Z,35.30
2018-03-19T08:52:08.099Z,35.50
2018-03-19T08:53:08.060Z,36.07
2018-03-19T08:54:08.023Z,35.42
2018-03-19T08:55:07.991Z,35.03
2018-03-19T08:56:07.901Z,35.42
2018-03-19T08:57:07.907Z,35.05
2018-03-19T08:58:08.328Z,34.88
2018-03-19T08:59:07.832Z,33.54
2018-03-19T09:00:07.795Z,32.77
2018-03-19T09:01:07.705Z,32.80
2018-03-19T09:02:07.816Z,32.50
2018-03-19T09:03:07.679Z,32.67
2018-03-19T09:04:07.642Z,32.86
2018-03-19T09:05:07.903Z,33.62
2018-03-19T09:06:07.524Z,33.72
2018-03-19T09:07:07.686Z,34.08
2018-03-19T09:08:07.493Z,34.84
2018-03-19T09:09:07.553Z,34.36
2018-03-19T09:10:07.581Z,34.86
2018-03-19T09:11:07.632Z,33.81
2018-03-19T09:12:07.347Z,34.09
2018-03-19T09:13:07.403Z,33.53
2018-03-19T09:14:07.217Z,33.44
2018-03-19T09:15:07.334Z,32.84
2018-03-19T09:16:07.143Z,34.08
2018-03-19T09:17:07.509Z,33.86
2018-03-19T09:18:07.134Z,36.46
2018-03-19T09:19:07.081Z,35.16
2018-03-19T09:20:07.048Z,34.13
2018-03-19T09:21:06.954Z,32.14
2018-03-19T09:22:06.980Z,30.82
2018-03-19T09:23:07.190Z,30.73
2018-03-19T09:24:06.842Z,31.12
2018-03-19T09:25:06.895Z,30.55
2018-03-19T09:26:06.769Z,29.77
2018-03-19T09:27:06.783Z,30.52
2018-03-19T09:28:06.897Z,30.49
2018-03-19T09:29:06.661Z,32.78
2018-03-19T09:30:06.675Z,32.67
2018-03-19T09:31:06.651Z,32.86
2018-03-19T09:32:06.602Z,32.56
2018-03-19T09:33:06.566Z,33.34
2018-03-19T09:34:06.532Z,32.67
2018-03-19T09:35:06.808Z,32.86
2018-03-19T09:36:06.408Z,32.81
2018-03-19T09:37:06.420Z,34.92
2018-03-19T09:38:06.391Z,35.14
2018-03-19T09:39:06.299Z,34.40
2018-03-19T09:40:06.317Z,33.65
2018-03-19T09:41:06.242Z,32.77
2018-03-19T09:42:06.545Z,32.61
2018-03-19T09:43:06.208Z,32.67
2018-03-19T09:44:06.168Z,32.97
2018-03-19T09:45:06.228Z,32.69
2018-03-19T09:46:06.045Z,31.55
2018-03-19T09:47:06.064Z,31.72
2018-03-19T09:48:06.025Z,32.12
2018-03-19T09:49:06.240Z,31.99
2018-03-19T09:50:05.947Z,32.37
2018-03-19T09:51:05.914Z,33.61
2018-03-19T09:52:06.128Z,34.09
2018-03-19T09:53:05.849Z,34.00
2018-03-19T09:54:05.752Z,32.92
2018-03-19T09:55:05.768Z,33.87
2018-03-19T09:56:06.033Z,35.05
2018-03-19T09:57:05.843Z,34.02
2018-03-19T09:58:05.808Z,32.69
2018-03-19T09:59:05.621Z,32.50
2018-03-19T10:00:05.732Z,31.85
2018-03-19T10:01:05.553Z,31.25
2018-03-19T10:02:05.517Z,32.69
2018-03-19T10:03:05.776Z,32.62
2018-03-19T10:04:05.388Z,32.56
2018-03-19T10:05:05.556Z,31.04
2018-03-19T10:06:05.364Z,29.22
2018-03-19T10:07:05.432Z,28.72
2018-03-19T10:08:05.448Z,29.16
2018-03-19T10:09:05.209Z,30.69
2018-03-19T10:10:05.324Z,30.98
2018-03-19T10:11:05.190Z,32.23
2018-03-19T10:12:05.153Z,32.34
2018-03-19T10:13:05.273Z,30.91
2018-03-19T10:14:05.037Z,30.91
2018-03-19T10:15:05.048Z,30.80
2018-03-19T10:16:05.311Z,30.74
2018-03-19T10:17:04.978Z,30.44
2018-03-19T10:18:04.948Z,30.07
2018-03-19T10:19:04.858Z,29.22
2018-03-19T10:20:04.876Z,28.34
2018-03-19T10:21:04.839Z,28.81
2018-03-19T10:22:05.109Z,30.33
2018-03-19T10:23:04.775Z,29.75
2018-03-19T10:24:04.689Z,29.95
2018-03-19T10:25:04.701Z,29.96
2018-03-19T10:26:04.819Z,29.75
2018-03-19T10:27:04.799Z,29.75
2018-03-19T10:28:04.903Z,29.85
2018-03-19T10:29:04.515Z,29.93
2018-03-19T10:30:04.527Z,30.51
2018-03-19T10:31:04.500Z,30.88
2018-03-19T10:32:04.458Z,30.23
2018-03-19T10:33:04.423Z,30.03
2018-03-19T10:34:04.644Z,30.80
2018-03-19T10:35:04.355Z,30.44
2018-03-19T10:36:04.320Z,29.44
2018-03-19T10:37:04.285Z,30.58
2018-03-19T10:38:04.348Z,31.28
2018-03-19T10:39:04.164Z,30.99
2018-03-19T10:40:04.530Z,30.12
2018-03-19T10:41:04.146Z,30.90
2018-03-19T10:42:04.211Z,31.28
2018-03-19T10:43:04.079Z,31.18
2018-03-19T10:44:03.999Z,30.54
2018-03-19T10:45:04.106Z,29.11
2018-03-19T10:46:04.321Z,27.86
2018-03-19T10:47:04.038Z,28.63
2018-03-19T10:48:04.001Z,28.93
2018-03-19T10:49:03.823Z,28.08
2018-03-19T10:50:03.844Z,27.67
2018-03-19T10:51:03.801Z,28.44
2018-03-19T10:52:04.028Z,27.94
2018-03-19T10:53:03.829Z,28.90
2018-03-19T10:54:03.849Z,28.74
2018-03-19T10:55:03.662Z,28.05
2018-03-19T10:56:03.774Z,27.87
2018-03-19T10:57:03.697Z,27.95
2018-03-19T10:58:03.506Z,27.12
2018-03-19T10:59:03.774Z,26.55
2018-03-19T11:00:03.492Z,26.65
2018-03-19T11:01:03.606Z,26.74
2018-03-19T11:02:03.568Z,26.17
2018-03-19T11:03:03.333Z,26.07
2018-03-19T11:04:03.349Z,25.21
2018-03-19T11:05:03.464Z,25.30
2018-03-19T11:06:03.539Z,25.21
2018-03-19T11:07:03.500Z,25.78
2018-03-19T11:08:03.217Z,26.35
2018-03-19T11:09:03.433Z,25.79
2018-03-19T11:10:03.149Z,25.21
2018-03-19T11:11:03.068Z,25.38
2018-03-19T11:12:03.262Z,26.13
2018-03-19T11:13:03.345Z,26.14
2018-03-19T11:14:03.018Z,27.04
2018-03-19T11:15:03.074Z,26.67
2018-03-19T11:16:02.891Z,25.03
2018-03-19T11:17:02.961Z,24.37
2018-03-19T11:18:02.995Z,25.22
2018-03-19T11:19:02.842Z,24.07
2018-03-19T11:20:03.269Z,24.55
2018-03-19T11:21:02.725Z,24.17
2018-03-19T11:22:02.841Z,23.79
2018-03-19T11:23:02.758Z,23.52
2018-03-19T11:24:02.771Z,22.74
2018-03-19T11:25:02.796Z,23.32
2018-03-19T11:26:02.555Z,23.02
2018-03-19T11:27:02.872Z,23.00
2018-03-19T11:28:02.538Z,23.97
2018-03-19T11:29:02.653Z,23.09
2018-03-19T11:30:02.570Z,23.86
2018-03-19T11:31:02.386Z,24.53
2018-03-19T11:32:02.567Z,24.26
2018-03-19T11:33:02.471Z,24.35
2018-03-19T11:34:02.636Z,24.07
2018-03-19T11:35:02.309Z,24.07
2018-03-19T11:36:02.220Z,24.62
2018-03-19T11:37:02.232Z,24.27
2018-03-19T11:38:02.302Z,23.79
2018-03-19T11:39:02.165Z,23.34
2018-03-19T11:40:02.431Z,22.17
2018-03-19T11:41:02.096Z,22.84
2018-03-19T11:42:02.066Z,22.77
2018-03-19T11:43:02.129Z,22.48
2018-03-19T11:44:01.995Z,21.71
2018-03-19T11:45:02.061Z,21.51
2018-03-19T11:46:02.179Z,21.42
2018-03-19T11:47:02.047Z,21.89
2018-03-19T11:48:01.862Z,21.99
2018-03-19T11:49:01.846Z,21.51
2018-03-19T11:50:01.945Z,21.04
2018-03-19T11:51:01.709Z,19.98
2018-03-19T11:52:02.043Z,20.45
2018-03-19T11:53:01.793Z,20.08
2018-03-19T11:54:01.808Z,20.27
2018-03-19T11:55:01.625Z,20.08
2018-03-19T11:56:01.543Z,19.52
2018-03-19T11:57:01.561Z,19.34
2018-03-19T11:58:01.838Z,19.55
2018-03-19T12:00:01.459Z,19.06
2018-03-19T12:01:01.374Z,19.05
2018-03-19T12:02:01.389Z,20.00
2018-03-19T12:03:01.358Z,19.90
2018-03-19T12:04:01.627Z,20.84
2018-03-19T12:05:01.291Z,20.84
2018-03-19T12:06:01.215Z,22.77
2018-03-19T12:07:01.331Z,23.65
2018-03-19T12:08:01.293Z,22.52
2018-03-19T12:09:01.164Z,21.55
2018-03-19T12:10:01.381Z,20.88
2018-03-19T12:11:01.045Z,21.15
2018-03-19T12:12:01.312Z,23.16
2018-03-19T12:13:01.124Z,22.40
2018-03-19T12:14:01.093Z,20.73
2018-03-19T12:15:00.962Z,22.46
2018-03-19T12:16:00.879Z,21.79
2018-03-19T12:17:01.192Z,20.73
2018-03-19T12:18:00.967Z,20.64
2018-03-19T12:19:00.792Z,21.04
2018-03-19T12:20:00.793Z,21.04
2018-03-19T12:21:00.707Z,20.86
2018-03-19T12:22:00.834Z,20.76
2018-03-19T12:23:00.692Z,21.91
2018-03-19T12:24:00.905Z,21.08
2018-03-19T12:25:00.726Z,20.21
2018-03-19T12:26:00.538Z,20.79
2018-03-19T12:27:00.556Z,21.25
2018-03-19T12:28:00.526Z,22.10
2018-03-19T12:29:00.452Z,22.58
2018-03-19T12:30:00.453Z,23.92
2018-03-19T12:31:00.670Z,23.92
2018-03-19T12:32:00.635Z,22.48
2018-03-19T12:33:00.451Z,21.62
2018-03-19T12:34:00.269Z,21.62
2018-03-19T12:35:00.286Z,21.74
2018-03-19T12:36:00.213Z,19.92
2018-03-19T12:37:00.217Z,19.91
2018-03-19T12:38:00.485Z,20.10
2018-03-19T12:39:00.100Z,19.81
2018-03-19T12:40:00.213Z,20.67
2018-03-19T12:41:00.081Z,21.54
2018-03-19T12:42:00.146Z,23.08
2018-03-19T12:43:00.015Z,22.11
2018-03-19T12:43:59.979Z,21.73
2018-03-19T12:45:00.347Z,21.26
2018-03-19T12:45:59.917Z,21.84
2018-03-19T12:46:59.880Z,20.50
2018-03-19T12:47:59.844Z,20.01
2018-03-19T12:48:59.765Z,20.12
2018-03-19T12:49:59.879Z,20.23
2018-03-19T12:50:59.808Z,19.46
2018-03-19T12:52:00.012Z,19.91
2018-03-19T12:52:59.824Z,21.05